createdAt,value
2022-08-26T00:00:43.496Z,21.05
2022-08-26T00:01:44.128Z,21.05
2022-08-26T00:02:43.415Z,21.01
2022-08-26T00:03:43.417Z,21.01
2022-08-26T00:04:43.336Z,21.05
2022-08-26T00:05:43.838Z,21.04
2022-08-26T00:06:46.151Z,20.93
2022-08-26T00:07:43.373Z,20.95
2022-08-26T00:08:43.176Z,20.98
2022-08-26T00:09:47.337Z,21.08
2022-08-26T00:10:43.092Z,21.03
2022-08-26T00:11:43.057Z,21.08
2022-08-26T00:12:43.017Z,21.04
2022-08-26T00:13:47.989Z,21.07
2022-08-26T00:14:42.936Z,21.07
2022-08-26T00:15:42.913Z,21.03
2022-08-26T00:16:48.146Z,21.03
2022-08-26T00:17:42.813Z,20.92
2022-08-26T00:18:42.776Z,21.04
2022-08-26T00:19:42.732Z,20.98
2022-08-26T00:20:42.696Z,20.89
2022-08-26T00:21:42.662Z,20.86
2022-08-26T00:22:42.617Z,20.88
2022-08-26T00:23:42.574Z,20.86
2022-08-26T00:24:47.847Z,20.80
2022-08-26T00:25:42.707Z,20.85
2022-08-26T00:26:42.463Z,20.85
2022-08-26T00:27:42.410Z,20.86
2022-08-26T00:28:42.403Z,20.73
2022-08-26T00:29:42.335Z,20.78
2022-08-26T00:30:42.307Z,20.82
2022-08-26T00:31:42.335Z,20.68
2022-08-26T00:32:44.089Z,20.67
2022-08-26T00:33:42.168Z,20.68
2022-08-26T00:34:42.135Z,20.64
2022-08-26T00:35:43.826Z,20.67
2022-08-26T00:36:42.052Z,20.59
2022-08-26T00:37:42.011Z,20.63
2022-08-26T00:38:41.977Z,20.60
2022-08-26T00:39:41.926Z,20.64
2022-08-26T00:40:41.917Z,20.58
2022-08-26T00:41:41.855Z,20.66
2022-08-26T00:42:46.013Z,20.67
2022-08-26T00:43:47.113Z,20.66
2022-08-26T00:44:41.733Z,20.67
2022-08-26T00:45:41.719Z,20.66
2022-08-26T00:46:46.795Z,20.67
2022-08-26T00:47:41.609Z,20.67
2022-08-26T00:48:41.570Z,20.70
2022-08-26T00:49:41.539Z,20.68
2022-08-26T00:50:41.491Z,20.67
2022-08-26T00:51:41.446Z,20.64
2022-08-26T00:52:41.418Z,20.71
2022-08-26T00:53:41.570Z,20.64
2022-08-26T00:54:42.386Z,20.60
2022-08-26T00:55:41.286Z,20.59
2022-08-26T00:56:41.243Z,20.60
2022-08-26T00:57:41.319Z,20.53
2022-08-26T00:58:41.166Z,20.59
2022-08-26T00:59:41.130Z,20.53
2022-08-26T01:00:41.129Z,20.60
2022-08-26T01:01:41.047Z,20.55
2022-08-26T01:02:41.041Z,20.56
2022-08-26T01:03:40.990Z,20.63
2022-08-26T01:04:40.921Z,20.66
2022-08-26T01:05:40.884Z,20.67
2022-08-26T01:06:40.847Z,20.68
2022-08-26T01:07:40.811Z,20.68
2022-08-26T01:08:40.765Z,20.68
2022-08-26T01:09:40.731Z,20.66
2022-08-26T01:10:40.699Z,20.71
2022-08-26T01:11:40.638Z,20.64
2022-08-26T01:12:40.629Z,20.64
2022-08-26T01:13:40.566Z,20.73
2022-08-26T01:14:40.526Z,20.68
2022-08-26T01:15:40.481Z,20.67
2022-08-26T01:16:40.480Z,20.80
2022-08-26T01:17:48.690Z,20.64
2022-08-26T01:18:40.565Z,20.64
2022-08-26T01:19:40.409Z,20.59
2022-08-26T01:20:41.394Z,20.59
2022-08-26T01:21:40.546Z,20.55
2022-08-26T01:22:40.213Z,20.42
2022-08-26T01:23:40.202Z,20.48
2022-08-26T01:24:40.186Z,20.46
2022-08-26T01:25:40.091Z,20.37
2022-08-26T01:26:40.203Z,20.36
2022-08-26T01:27:39.996Z,20.33
2022-08-26T01:28:39.962Z,20.37
2022-08-26T01:29:40.230Z,20.36
2022-08-26T01:30:49.419Z,20.22
2022-08-26T01:31:39.901Z,20.24
2022-08-26T01:32:39.791Z,20.33
2022-08-26T01:33:42.439Z,20.30
2022-08-26T01:34:39.714Z,20.22
2022-08-26T01:35:39.692Z,20.19
2022-08-26T01:36:39.626Z,20.24
2022-08-26T01:37:40.481Z,20.24
2022-08-26T01:38:39.553Z,20.18
2022-08-26T01:39:39.507Z,20.19
2022-08-26T01:40:39.467Z,20.18
2022-08-26T01:41:39.441Z,20.15
2022-08-26T01:42:39.388Z,20.24
2022-08-26T01:43:39.351Z,20.08
2022-08-26T01:44:39.310Z,20.11
2022-08-26T01:45:39.300Z,20.10
2022-08-26T01:46:39.233Z,20.10
2022-08-26T01:47:39.188Z,20.08
2022-08-26T01:48:39.145Z,20.08
2022-08-26T01:49:39.102Z,20.08
2022-08-26T01:50:39.059Z,20.19
2022-08-26T01:51:39.048Z,20.21
2022-08-26T01:52:38.983Z,20.17
2022-08-26T01:53:38.942Z,20.15
2022-08-26T01:54:38.903Z,20.18
2022-08-26T01:55:38.864Z,20.22
2022-08-26T01:56:38.818Z,20.19
2022-08-26T01:57:38.943Z,20.10
2022-08-26T01:58:38.747Z,20.17
2022-08-26T01:59:38.698Z,20.11
2022-08-26T02:00:38.696Z,20.03
2022-08-26T02:01:38.616Z,20.10
2022-08-26T02:02:38.575Z,20.04
2022-08-26T02:03:38.681Z,20.03
2022-08-26T02:04:38.536Z,19.90
2022-08-26T02:05:38.457Z,19.84
2022-08-26T02:06:38.411Z,19.92
2022-08-26T02:07:38.370Z,19.92
2022-08-26T02:08:38.344Z,19.96
2022-08-26T02:09:38.426Z,19.92
2022-08-26T02:10:38.251Z,19.94
2022-08-26T02:11:38.238Z,19.93
2022-08-26T02:12:38.178Z,19.94
2022-08-26T02:13:38.129Z,19.93
2022-08-26T02:14:42.330Z,19.94
2022-08-26T02:15:38.049Z,19.93
2022-08-26T02:16:38.071Z,19.99
2022-08-26T02:17:37.997Z,19.89
2022-08-26T02:18:37.933Z,19.92
2022-08-26T02:19:37.900Z,19.90
2022-08-26T02:20:37.848Z,19.93
2022-08-26T02:21:37.809Z,19.90
2022-08-26T02:22:37.767Z,19.94
2022-08-26T02:23:37.752Z,19.96
2022-08-26T02:24:37.682Z,19.96
2022-08-26T02:25:37.645Z,19.87
2022-08-26T02:26:37.607Z,19.93
2022-08-26T02:27:37.562Z,19.87
2022-08-26T02:28:37.523Z,19.78
2022-08-26T02:29:37.493Z,19.78
2022-08-26T02:30:37.435Z,19.77
2022-08-26T02:31:37.439Z,19.74
2022-08-26T02:32:37.361Z,19.63
2022-08-26T02:33:37.311Z,19.72
2022-08-26T02:34:37.281Z,19.70
2022-08-26T02:35:37.255Z,19.60
2022-08-26T02:36:37.195Z,19.60
2022-08-26T02:37:37.171Z,19.62
2022-08-26T02:38:37.120Z,19.59
2022-08-26T02:39:37.071Z,19.53
2022-08-26T02:40:37.033Z,19.55
2022-08-26T02:41:40.264Z,19.52
2022-08-26T02:42:36.957Z,19.38
2022-08-26T02:43:36.928Z,19.49
2022-08-26T02:44:36.868Z,19.44
2022-08-26T02:45:36.830Z,19.42
2022-08-26T02:46:36.813Z,19.44
2022-08-26T02:47:36.743Z,19.45
2022-08-26T02:48:36.702Z,19.44
2022-08-26T02:49:36.687Z,19.39
2022-08-26T02:50:36.625Z,19.45
2022-08-26T02:51:36.585Z,19.44
2022-08-26T02:52:36.542Z,19.37
2022-08-26T02:53:36.503Z,19.41
2022-08-26T02:54:36.463Z,19.41
2022-08-26T02:55:36.442Z,19.42
2022-08-26T02:56:36.386Z,19.35
2022-08-26T02:57:36.339Z,19.32
2022-08-26T02:58:36.297Z,19.32
2022-08-26T02:59:36.262Z,19.29
2022-08-26T03:00:36.296Z,19.23
2022-08-26T03:01:36.258Z,19.22
2022-08-26T03:02:36.137Z,19.22
2022-08-26T03:03:36.094Z,19.16
2022-08-26T03:04:36.048Z,19.12
2022-08-26T03:05:36.018Z,19.11
2022-08-26T03:06:35.967Z,19.17
2022-08-26T03:07:35.940Z,19.22
2022-08-26T03:08:35.885Z,19.16
2022-08-26T03:09:35.846Z,19.12
2022-08-26T03:10:35.805Z,19.16
2022-08-26T03:11:35.762Z,19.17
2022-08-26T03:12:35.741Z,19.23
2022-08-26T03:13:35.681Z,19.16
2022-08-26T03:14:35.641Z,19.15
2022-08-26T03:15:35.599Z,19.20
2022-08-26T03:16:35.659Z,19.19
2022-08-26T03:17:35.518Z,19.11
2022-08-26T03:18:35.499Z,19.15
2022-08-26T03:19:35.436Z,19.20
2022-08-26T03:20:36.043Z,19.07
2022-08-26T03:21:35.355Z,19.20
2022-08-26T03:22:35.315Z,19.22
2022-08-26T03:23:36.045Z,19.19
2022-08-26T03:24:36.383Z,19.16
2022-08-26T03:25:36.055Z,19.09
2022-08-26T03:26:36.102Z,19.17
2022-08-26T03:27:35.109Z,19.15
2022-08-26T03:28:35.069Z,19.17
2022-08-26T03:29:35.044Z,19.15
2022-08-26T03:30:34.983Z,19.17
2022-08-26T03:31:35.033Z,19.16
2022-08-26T03:32:34.904Z,19.19
2022-08-26T03:33:34.869Z,19.12
2022-08-26T03:34:34.820Z,19.12
2022-08-26T03:35:34.803Z,19.11
2022-08-26T03:36:35.039Z,19.05
2022-08-26T03:37:34.694Z,19.09
2022-08-26T03:38:34.657Z,19.19
2022-08-26T03:39:34.617Z,19.07
2022-08-26T03:40:34.603Z,19.09
2022-08-26T03:41:34.558Z,19.15
2022-08-26T03:42:34.492Z,19.16
2022-08-26T03:43:34.504Z,19.05
2022-08-26T03:44:34.411Z,19.19
2022-08-26T03:45:34.371Z,19.11
2022-08-26T03:46:34.363Z,19.04
2022-08-26T03:47:34.307Z,19.09
2022-08-26T03:48:34.249Z,19.08
2022-08-26T03:49:34.208Z,19.08
2022-08-26T03:50:35.693Z,19.11
2022-08-26T03:51:34.123Z,19.09
2022-08-26T03:52:34.085Z,19.09
2022-08-26T03:53:34.060Z,19.04
2022-08-26T03:54:33.998Z,18.97
2022-08-26T03:55:33.961Z,18.98
2022-08-26T03:56:33.915Z,18.98
2022-08-26T03:57:33.876Z,18.92
2022-08-26T03:58:33.833Z,18.98
2022-08-26T03:59:33.815Z,18.98
2022-08-26T04:00:33.752Z,18.96
2022-08-26T04:01:33.755Z,18.97
2022-08-26T04:02:33.751Z,18.91
2022-08-26T04:03:34.161Z,18.98
2022-08-26T04:04:33.591Z,19.01
2022-08-26T04:05:34.448Z,18.97
2022-08-26T04:06:33.513Z,19.04
2022-08-26T04:07:34.451Z,18.96
2022-08-26T04:08:33.433Z,18.98
2022-08-26T04:09:35.162Z,19.05
2022-08-26T04:10:33.346Z,19.00
2022-08-26T04:11:34.176Z,18.97
2022-08-26T04:12:33.264Z,18.96
2022-08-26T04:13:33.228Z,19.01
2022-08-26T04:14:33.183Z,18.98
2022-08-26T04:15:33.171Z,19.04
2022-08-26T04:16:33.165Z,19.04
2022-08-26T04:17:33.106Z,19.00
2022-08-26T04:18:33.210Z,19.04
2022-08-26T04:19:32.972Z,19.00
2022-08-26T04:20:32.989Z,18.98
2022-08-26T04:21:32.895Z,19.00
2022-08-26T04:22:32.854Z,19.00
2022-08-26T04:23:32.813Z,18.97
2022-08-26T04:24:32.799Z,19.00
2022-08-26T04:25:32.737Z,19.00
2022-08-26T04:26:32.693Z,19.00
2022-08-26T04:27:32.649Z,19.09
2022-08-26T04:28:32.602Z,19.05
2022-08-26T04:29:32.566Z,19.04
2022-08-26T04:30:32.544Z,19.08
2022-08-26T04:31:32.521Z,18.98
2022-08-26T04:32:32.440Z,19.04
2022-08-26T04:33:33.216Z,19.00
2022-08-26T04:34:32.358Z,18.98
2022-08-26T04:35:32.322Z,18.98
2022-08-26T04:36:32.292Z,18.98
2022-08-26T04:37:32.576Z,18.91
2022-08-26T04:38:32.200Z,18.92
2022-08-26T04:39:32.154Z,18.85
2022-08-26T04:40:32.167Z,18.81
2022-08-26T04:41:32.066Z,18.86
2022-08-26T04:42:32.044Z,18.74
2022-08-26T04:43:32.000Z,18.78
2022-08-26T04:44:31.954Z,18.81
2022-08-26T04:45:31.908Z,18.79
2022-08-26T04:46:31.876Z,18.82
2022-08-26T04:47:32.515Z,18.78
2022-08-26T04:48:31.805Z,18.74
2022-08-26T04:49:35.600Z,18.85
2022-08-26T04:50:31.701Z,18.82
2022-08-26T04:51:31.662Z,18.82
2022-08-26T04:52:31.626Z,18.79
2022-08-26T04:53:31.584Z,18.74
2022-08-26T04:54:31.560Z,18.79
2022-08-26T04:55:39.885Z,18.81
2022-08-26T04:56:31.460Z,18.81
2022-08-26T04:57:31.412Z,18.81
2022-08-26T04:58:31.370Z,18.83
2022-08-26T04:59:32.593Z,18.76
2022-08-26T05:00:31.300Z,18.78
2022-08-26T05:01:31.284Z,18.78
2022-08-26T05:02:31.207Z,18.79
2022-08-26T05:03:31.229Z,18.78
2022-08-26T05:04:31.131Z,18.81
2022-08-26T05:05:31.097Z,18.85
2022-08-26T05:06:31.039Z,18.74
2022-08-26T05:07:30.999Z,18.86
2022-08-26T05:08:30.962Z,18.82
2022-08-26T05:09:30.919Z,18.91
2022-08-26T05:10:30.875Z,18.81
2022-08-26T05:11:30.857Z,18.86
2022-08-26T05:12:30.794Z,18.85
2022-08-26T05:13:30.754Z,18.91
2022-08-26T05:14:30.836Z,19.00
2022-08-26T05:15:30.691Z,18.94
2022-08-26T05:16:30.638Z,18.92
2022-08-26T05:17:30.587Z,18.97
2022-08-26T05:18:30.545Z,19.07
2022-08-26T05:19:30.616Z,19.04
2022-08-26T05:20:30.500Z,19.01
2022-08-26T05:21:30.454Z,19.08
2022-08-26T05:22:30.392Z,19.08
2022-08-26T05:23:30.363Z,19.01
2022-08-26T05:24:30.318Z,19.11
2022-08-26T05:25:30.256Z,19.12
2022-08-26T05:26:30.236Z,19.09
2022-08-26T05:27:30.187Z,19.00
2022-08-26T05:28:30.158Z,19.09
2022-08-26T05:29:30.093Z,19.04
2022-08-26T05:30:30.050Z,19.11
2022-08-26T05:31:30.145Z,19.08
2022-08-26T05:32:29.995Z,19.08
2022-08-26T05:33:29.931Z,19.19
2022-08-26T05:34:30.146Z,19.22
2022-08-26T05:35:29.844Z,19.17
2022-08-26T05:36:29.804Z,19.17
2022-08-26T05:37:29.782Z,19.22
2022-08-26T05:38:30.356Z,19.27
2022-08-26T05:39:29.682Z,19.26
2022-08-26T05:40:29.741Z,19.37
2022-08-26T05:41:34.332Z,19.39
2022-08-26T05:42:29.564Z,19.38
2022-08-26T05:43:29.520Z,19.49
2022-08-26T05:44:29.497Z,19.47
2022-08-26T05:45:29.435Z,19.45
2022-08-26T05:46:29.442Z,19.53
2022-08-26T05:47:29.357Z,19.59
2022-08-26T05:48:29.317Z,19.60
2022-08-26T05:49:29.280Z,19.59
2022-08-26T05:50:29.252Z,19.56
2022-08-26T05:51:30.357Z,19.56
2022-08-26T05:52:29.151Z,19.70
2022-08-26T05:53:29.118Z,19.70
2022-08-26T05:54:29.069Z,19.70
2022-08-26T05:55:29.210Z,19.66
2022-08-26T05:56:28.987Z,19.67
2022-08-26T05:57:28.949Z,19.67
2022-08-26T05:58:28.913Z,19.77
2022-08-26T05:59:28.861Z,19.79
2022-08-26T06:03:46.667Z,19.75
2022-08-26T06:04:46.440Z,19.77
2022-08-26T06:05:46.630Z,19.62
2022-08-26T06:06:46.355Z,19.75
2022-08-26T06:07:46.444Z,19.74
2022-08-26T06:08:46.266Z,19.77
2022-08-26T06:09:46.244Z,19.81
2022-08-26T06:10:46.309Z,19.82
2022-08-26T06:11:46.262Z,19.89
2022-08-26T06:12:46.105Z,19.92
2022-08-26T06:13:46.278Z,20.03
2022-08-26T06:14:46.067Z,20.07
2022-08-26T06:15:46.043Z,20.12
2022-08-26T06:16:46.096Z,20.19
2022-08-26T06:17:45.902Z,20.30
2022-08-26T06:18:46.112Z,20.40
2022-08-26T06:19:45.829Z,20.42
2022-08-26T06:20:57.857Z,20.46
2022-08-26T06:21:45.741Z,20.59
2022-08-26T06:22:46.139Z,20.55
2022-08-26T06:23:45.670Z,20.73
2022-08-26T06:24:45.744Z,20.80
2022-08-26T06:25:45.585Z,20.86
2022-08-26T06:26:46.676Z,20.95
2022-08-26T06:27:45.512Z,21.05
2022-08-26T06:28:45.805Z,21.05
2022-08-26T06:29:45.408Z,21.14
2022-08-26T06:30:45.509Z,21.28
2022-08-26T06:31:45.331Z,21.43
2022-08-26T06:32:45.291Z,21.48
2022-08-26T06:33:45.709Z,21.48
2022-08-26T06:34:45.219Z,21.66
2022-08-26T06:35:46.342Z,21.72
2022-08-26T06:36:45.133Z,21.75
2022-08-26T06:37:45.328Z,21.84
2022-08-26T06:38:45.055Z,21.85
2022-08-26T06:39:45.136Z,21.97
2022-08-26T06:40:44.965Z,22.01
2022-08-26T06:41:45.152Z,22.12
2022-08-26T06:42:44.897Z,22.18
2022-08-26T06:43:44.855Z,22.33
2022-08-26T06:44:44.910Z,22.46
2022-08-26T06:45:45.181Z,22.52
2022-08-26T06:46:44.816Z,22.62
2022-08-26T06:47:44.834Z,22.65
2022-08-26T06:48:44.654Z,22.77
2022-08-26T06:49:44.613Z,22.86
2022-08-26T06:50:44.806Z,22.96
2022-08-26T06:51:44.537Z,22.99
2022-08-26T06:52:45.848Z,23.10
2022-08-26T06:53:44.459Z,23.25
2022-08-26T06:54:44.633Z,23.32
2022-08-26T06:55:44.405Z,23.40
2022-08-26T06:56:44.443Z,23.52
2022-08-26T06:57:44.332Z,23.62
2022-08-26T06:58:44.459Z,23.71
2022-08-26T06:59:44.228Z,23.81
2022-08-26T07:00:47.525Z,23.82
2022-08-26T07:01:44.167Z,23.99
2022-08-26T07:02:46.869Z,24.13
2022-08-26T07:03:44.308Z,24.04
2022-08-26T07:04:44.028Z,24.22
2022-08-26T07:05:44.100Z,24.31
2022-08-26T07:06:45.140Z,24.34
2022-08-26T07:07:44.171Z,24.44
2022-08-26T07:08:44.153Z,24.59
2022-08-26T07:09:43.863Z,24.69
2022-08-26T07:10:43.937Z,24.78
2022-08-26T07:11:43.774Z,24.85
2022-08-26T07:12:43.720Z,24.93
2022-08-26T07:13:43.710Z,25.03
2022-08-26T07:14:47.441Z,25.11
2022-08-26T07:15:43.716Z,25.11
2022-08-26T07:16:43.790Z,25.24
2022-08-26T07:17:43.544Z,25.37
2022-08-26T07:18:44.776Z,25.43
2022-08-26T07:19:43.790Z,25.48
2022-08-26T07:20:43.454Z,25.61
2022-08-26T07:21:43.498Z,25.67
2022-08-26T07:22:43.354Z,25.73
2022-08-26T07:23:43.317Z,25.83
2022-08-26T07:24:43.421Z,25.89
2022-08-26T07:25:44.346Z,25.96
2022-08-26T07:26:43.291Z,26.07
2022-08-26T07:27:43.338Z,26.06
2022-08-26T07:28:43.119Z,26.06
2022-08-26T07:29:43.349Z,26.13
2022-08-26T07:30:43.093Z,26.31
2022-08-26T07:31:43.408Z,26.41
2022-08-26T07:32:42.964Z,26.37
2022-08-26T07:33:43.179Z,26.46
2022-08-26T07:34:43.180Z,26.49
2022-08-26T07:35:42.853Z,26.64
2022-08-26T07:36:44.062Z,26.59
2022-08-26T07:37:42.998Z,26.64
2022-08-26T07:38:43.006Z,26.76
2022-08-26T07:39:43.144Z,26.82
2022-08-26T07:40:42.666Z,26.82
2022-08-26T07:41:42.840Z,26.83
2022-08-26T07:42:42.624Z,27.04
2022-08-26T07:43:42.575Z,27.00
2022-08-26T07:44:42.639Z,27.05
2022-08-26T07:45:42.707Z,27.25
2022-08-26T07:46:42.449Z,27.35
2022-08-26T07:47:42.869Z,27.41
2022-08-26T07:48:46.061Z,27.45
2022-08-26T07:49:42.525Z,27.57
2022-08-26T07:50:50.128Z,27.73
2022-08-26T07:51:42.261Z,27.78
2022-08-26T07:52:43.319Z,27.97
2022-08-26T07:53:42.196Z,28.01
2022-08-26T07:54:42.503Z,28.16
2022-08-26T07:55:42.121Z,28.30
2022-08-26T07:56:44.274Z,28.34
2022-08-26T07:57:42.049Z,28.45
2022-08-26T07:58:44.954Z,28.57
2022-08-26T07:59:41.977Z,28.68
2022-08-26T08:00:41.951Z,28.80
2022-08-26T08:01:45.044Z,28.92
2022-08-26T08:02:42.053Z,28.89
2022-08-26T08:03:41.843Z,29.05
2022-08-26T08:04:42.107Z,29.16
2022-08-26T08:05:41.786Z,29.22
2022-08-26T08:06:43.940Z,29.21
2022-08-26T08:07:44.656Z,29.25
2022-08-26T08:08:41.645Z,29.22
2022-08-26T08:09:41.630Z,29.30
2022-08-26T08:10:41.709Z,29.47
2022-08-26T08:11:41.542Z,29.47
2022-08-26T08:12:41.724Z,29.62
2022-08-26T08:13:41.466Z,29.79
2022-08-26T08:14:41.448Z,29.77
2022-08-26T08:15:41.735Z,29.86
2022-08-26T08:16:45.933Z,29.87
2022-08-26T08:17:41.549Z,29.99
2022-08-26T08:18:41.294Z,30.05
2022-08-26T08:19:41.355Z,30.06
2022-08-26T08:20:44.698Z,30.11
2022-08-26T08:21:48.743Z,30.21
2022-08-26T08:22:41.155Z,30.24
2022-08-26T08:23:41.412Z,30.35
2022-08-26T08:24:41.082Z,30.48
2022-08-26T08:25:41.092Z,30.44
2022-08-26T08:26:41.024Z,30.55
2022-08-26T08:27:41.208Z,30.74
2022-08-26T08:28:40.944Z,30.96
2022-08-26T08:29:41.018Z,31.07
2022-08-26T08:30:40.911Z,31.28
2022-08-26T08:31:58.455Z,31.48
2022-08-26T08:32:40.809Z,31.60
2022-08-26T08:33:41.070Z,31.73
2022-08-26T08:35:40.873Z,31.77
2022-08-26T08:36:40.677Z,31.92
2022-08-26T08:37:52.161Z,31.87
2022-08-26T08:38:48.687Z,31.81
2022-08-26T08:39:49.547Z,31.79
2022-08-26T08:40:53.269Z,31.72
2022-08-26T08:41:48.806Z,31.72
2022-08-26T08:42:47.891Z,31.72
2022-08-26T08:44:01.385Z,31.86
2022-08-26T08:44:58.928Z,31.73
2022-08-26T08:45:49.672Z,31.86
2022-08-26T08:46:53.498Z,31.95
2022-08-26T08:47:48.078Z,31.92
2022-08-26T08:48:48.079Z,31.92
2022-08-26T08:49:48.107Z,32.00
2022-08-26T08:51:02.680Z,32.05
2022-08-26T08:51:48.713Z,32.11
2022-08-26T08:52:48.743Z,32.00
2022-08-26T08:53:48.729Z,32.02
2022-08-26T08:54:47.814Z,32.09
2022-08-26T08:55:48.357Z,31.92
2022-08-26T08:56:55.397Z,31.93
2022-08-26T08:57:53.663Z,32.08
2022-08-26T08:58:52.973Z,32.05
2022-08-26T08:59:47.383Z,32.05
2022-08-26T09:00:48.059Z,32.08
2022-08-26T09:01:40.060Z,32.29
2022-08-26T09:02:39.843Z,32.57
2022-08-26T09:03:39.830Z,32.60
2022-08-26T09:04:39.740Z,32.75
2022-08-26T09:05:39.845Z,32.81
2022-08-26T09:06:39.622Z,32.91
2022-08-26T09:07:39.864Z,32.98
2022-08-26T09:08:39.561Z,33.13
2022-08-26T09:09:39.675Z,33.35
2022-08-26T09:10:39.728Z,33.40
2022-08-26T09:11:39.457Z,33.48
2022-08-26T09:12:39.595Z,33.77
2022-08-26T09:13:39.702Z,33.95
2022-08-26T09:14:39.408Z,34.32
2022-08-26T09:15:47.596Z,34.50
2022-08-26T09:16:39.557Z,34.60
2022-08-26T09:17:39.526Z,34.79
2022-08-26T09:18:39.230Z,34.79
2022-08-26T09:19:39.226Z,34.86
2022-08-26T09:20:39.445Z,35.07
2022-08-26T09:21:39.189Z,35.54
2022-08-26T09:22:39.299Z,35.75
2022-08-26T09:23:39.220Z,36.09
2022-08-26T09:24:42.073Z,36.24
2022-08-26T09:25:39.341Z,36.55
2022-08-26T09:26:39.306Z,36.89
2022-08-26T09:27:38.941Z,37.14
2022-08-26T09:28:38.924Z,37.37
2022-08-26T09:29:38.886Z,37.53
2022-08-26T09:30:39.247Z,37.58
2022-08-26T09:31:38.846Z,37.68
2022-08-26T09:32:38.926Z,37.85
2022-08-26T09:33:38.764Z,38.01
2022-08-26T09:34:38.740Z,38.20
2022-08-26T09:35:38.747Z,38.25
2022-08-26T09:36:41.379Z,38.00
2022-08-26T09:37:38.695Z,38.02
2022-08-26T09:38:38.788Z,37.85
2022-08-26T09:39:38.596Z,37.90
2022-08-26T09:40:38.617Z,38.00
2022-08-26T09:41:38.793Z,37.83
2022-08-26T09:42:38.521Z,37.63
2022-08-26T09:43:38.589Z,37.61
2022-08-26T09:44:38.443Z,37.85
2022-08-26T09:45:38.655Z,38.07
2022-08-26T09:47:38.625Z,38.12
2022-08-26T09:48:41.056Z,37.98
2022-08-26T09:49:38.428Z,38.10
2022-08-26T09:50:38.273Z,38.41
2022-08-26T09:51:38.243Z,38.19
2022-08-26T09:52:38.235Z,38.44
2022-08-26T09:53:38.458Z,38.62
2022-08-26T09:54:38.149Z,38.73
2022-08-26T09:55:38.295Z,38.70
2022-08-26T09:56:38.110Z,38.88
2022-08-26T09:57:38.059Z,38.88
2022-08-26T09:58:38.495Z,38.88
2022-08-26T09:59:38.005Z,38.65
2022-08-26T10:00:38.536Z,38.44
2022-08-26T10:01:38.094Z,38.41
2022-08-26T10:02:38.114Z,38.51
2022-08-26T10:03:37.887Z,38.41
2022-08-26T10:04:38.206Z,38.16
2022-08-26T10:05:37.844Z,38.07
2022-08-26T10:06:37.936Z,38.05
2022-08-26T10:07:37.773Z,38.07
2022-08-26T10:08:37.773Z,38.20
2022-08-26T10:09:38.223Z,38.16
2022-08-26T10:10:37.984Z,38.23
2022-08-26T10:11:37.660Z,38.09
2022-08-26T10:12:37.790Z,38.01
2022-08-26T10:13:37.598Z,38.07
2022-08-26T10:14:38.067Z,38.07
2022-08-26T10:15:37.814Z,38.34
2022-08-26T10:16:37.533Z,38.53
2022-08-26T10:17:37.612Z,38.65
2022-08-26T10:18:37.441Z,38.69
2022-08-26T10:19:43.110Z,38.58
2022-08-26T10:20:37.387Z,38.60
2022-08-26T10:21:37.846Z,38.68
2022-08-26T10:22:37.376Z,38.57
2022-08-26T10:23:37.524Z,38.39
2022-08-26T10:24:37.273Z,38.07
2022-08-26T10:25:37.255Z,37.86
2022-08-26T10:26:37.216Z,38.00
2022-08-26T10:27:37.482Z,38.13
2022-08-26T10:28:37.179Z,38.10
2022-08-26T10:29:37.289Z,38.12
2022-08-26T10:30:37.100Z,37.97
2022-08-26T10:31:40.131Z,37.95
2022-08-26T10:32:37.339Z,37.97
2022-08-26T10:33:37.312Z,37.88
2022-08-26T10:34:37.168Z,37.80
2022-08-26T10:35:37.120Z,37.68
2022-08-26T10:36:52.398Z,37.64
2022-08-26T10:37:36.882Z,37.44
2022-08-26T10:38:37.721Z,37.40
2022-08-26T10:39:36.944Z,37.63
2022-08-26T10:40:36.904Z,37.75
2022-08-26T10:41:36.963Z,37.80
2022-08-26T10:42:37.519Z,37.82
2022-08-26T10:43:36.712Z,37.58
2022-08-26T10:44:36.674Z,37.56
2022-08-26T10:45:36.860Z,37.48
2022-08-26T10:46:36.841Z,37.61
2022-08-26T10:47:36.798Z,37.79
2022-08-26T10:48:36.574Z,38.00
2022-08-26T10:49:36.522Z,38.50
2022-08-26T10:50:37.290Z,38.87
2022-08-26T10:51:36.475Z,39.14
2022-08-26T10:52:36.834Z,39.33
2022-08-26T10:53:36.407Z,39.64
2022-08-26T10:54:36.388Z,40.00
2022-08-26T10:55:36.659Z,40.42
2022-08-26T10:56:36.316Z,40.81
2022-08-26T10:57:36.469Z,41.20
2022-08-26T10:58:36.517Z,41.48
2022-08-26T10:59:36.787Z,41.78
2022-08-26T11:00:36.224Z,42.05
2022-08-26T11:01:36.557Z,42.40
2022-08-26T11:02:36.152Z,42.87
2022-08-26T11:03:36.306Z,43.31
2022-08-26T11:04:36.132Z,43.38
2022-08-26T11:05:36.110Z,43.39
2022-08-26T11:06:37.060Z,43.41
2022-08-26T11:07:36.333Z,43.49
2022-08-26T11:08:35.997Z,43.46
2022-08-26T11:09:36.349Z,43.49
2022-08-26T11:10:35.945Z,43.15
2022-08-26T11:11:35.931Z,42.86
2022-08-26T11:12:35.889Z,42.70
2022-08-26T11:13:39.902Z,42.52
2022-08-26T11:14:53.659Z,42.49
2022-08-26T11:15:35.832Z,42.87
2022-08-26T11:16:36.141Z,43.35
2022-08-26T11:17:35.770Z,43.54
2022-08-26T11:18:36.001Z,43.92
2022-08-26T11:19:58.953Z,44.34
2022-08-26T11:20:35.688Z,44.19
2022-08-26T11:21:35.713Z,44.45
2022-08-26T11:22:36.266Z,44.62
2022-08-26T11:23:35.731Z,44.75
2022-08-26T11:24:35.580Z,45.10
2022-08-26T11:25:35.655Z,45.17
2022-08-26T11:26:55.707Z,45.36
2022-08-26T11:27:35.607Z,45.42
2022-08-26T11:28:35.568Z,45.33
2022-08-26T11:29:35.462Z,45.49
2022-08-26T11:30:35.492Z,45.74
2022-08-26T11:31:35.430Z,46.00
2022-08-26T11:32:35.785Z,46.25
2022-08-26T11:33:35.596Z,46.49
2022-08-26T11:34:35.340Z,46.28
2022-08-26T11:35:37.499Z,46.13
2022-08-26T11:36:35.292Z,45.93
2022-08-26T11:37:35.344Z,46.20
2022-08-26T11:38:35.238Z,46.42
2022-08-26T11:39:36.887Z,46.68
2022-08-26T11:40:35.279Z,46.96
2022-08-26T11:41:35.181Z,47.04
2022-08-26T11:42:35.269Z,47.25
2022-08-26T11:43:35.124Z,47.41
2022-08-26T11:44:35.131Z,46.96
2022-08-26T11:45:35.157Z,46.75
2022-08-26T11:46:36.129Z,46.43
2022-08-26T11:47:35.146Z,46.62
2022-08-26T11:48:36.133Z,46.88
2022-08-26T11:49:34.992Z,46.78
2022-08-26T11:50:34.966Z,46.61
2022-08-26T11:51:47.771Z,46.94
2022-08-26T11:52:34.946Z,47.02
2022-08-26T11:53:34.920Z,47.31
2022-08-26T11:54:35.683Z,47.61
2022-08-26T11:55:34.860Z,47.83
2022-08-26T11:56:34.829Z,48.18
2022-08-26T11:57:34.808Z,48.14
2022-08-26T11:58:34.815Z,48.06
2022-08-26T12:00:34.750Z,48.39
2022-08-26T12:01:34.728Z,48.20
2022-08-26T12:02:34.693Z,48.29
2022-08-26T12:03:34.759Z,48.53
2022-08-26T12:04:34.801Z,48.79
2022-08-26T12:05:34.638Z,49.03
2022-08-26T12:06:36.382Z,49.17
2022-08-26T12:07:34.588Z,48.86
2022-08-26T12:08:34.577Z,48.77
2022-08-26T12:09:34.549Z,48.18
2022-08-26T12:10:34.531Z,48.07
2022-08-26T12:11:34.498Z,48.04
2022-08-26T12:12:34.987Z,48.13
2022-08-26T12:13:34.454Z,47.99
2022-08-26T12:14:34.441Z,48.22
2022-08-26T12:15:34.428Z,48.18
2022-08-26T12:16:34.449Z,47.35
2022-08-26T12:17:34.365Z,46.72
2022-08-26T12:18:34.344Z,46.35
2022-08-26T12:19:34.322Z,45.96
2022-08-26T12:20:34.318Z,45.59
2022-08-26T12:21:34.928Z,45.14
2022-08-26T12:22:34.253Z,44.50
2022-08-26T12:23:34.228Z,43.66
2022-08-26T12:24:34.200Z,42.93
2022-08-26T12:25:36.257Z,42.49
2022-08-26T12:26:34.166Z,42.00
2022-08-26T12:27:34.331Z,41.68
2022-08-26T12:28:34.111Z,41.36
2022-08-26T12:29:34.070Z,41.27
2022-08-26T12:30:34.040Z,41.64
2022-08-26T12:31:34.094Z,41.95
2022-08-26T12:32:34.172Z,42.18
2022-08-26T12:33:33.965Z,42.02
2022-08-26T12:34:33.968Z,41.91
2022-08-26T12:35:33.919Z,41.90
2022-08-26T12:36:33.890Z,41.63
2022-08-26T12:37:33.859Z,41.33
2022-08-26T12:38:33.852Z,40.89
2022-08-26T12:39:33.806Z,40.39
2022-08-26T12:40:33.835Z,39.98
2022-08-26T12:41:33.753Z,39.56
2022-08-26T12:42:33.724Z,38.92
2022-08-26T12:43:33.694Z,38.87
2022-08-26T12:44:33.696Z,38.84
2022-08-26T12:45:33.685Z,38.98
2022-08-26T12:46:33.613Z,39.20
2022-08-26T12:47:42.692Z,39.39
2022-08-26T12:48:33.557Z,39.38
2022-08-26T12:49:33.531Z,39.00
2022-08-26T12:50:33.506Z,38.82
2022-08-26T12:51:33.508Z,38.75
2022-08-26T12:52:33.444Z,38.82
2022-08-26T12:53:33.418Z,38.56
2022-08-26T12:54:33.388Z,38.48
2022-08-26T12:55:33.361Z,38.28
2022-08-26T12:56:33.338Z,38.01
2022-08-26T12:57:33.314Z,37.94
2022-08-26T12:58:33.269Z,37.58